createdAt,value
2023-05-19T00:00:09.291Z,61.68
2023-05-19T00:01:09.276Z,61.68
2023-05-19T00:02:09.555Z,61.59
2023-05-19T00:03:09.526Z,61.68
2023-05-19T00:04:09.235Z,61.68
2023-05-19T00:05:09.231Z,61.68
2023-05-19T00:06:09.255Z,61.68
2023-05-19T00:07:09.220Z,61.68
2023-05-19T00:08:09.186Z,61.79
2023-05-19T00:09:09.170Z,61.79
2023-05-19T00:10:09.152Z,61.79
2023-05-19T00:11:09.148Z,61.79
2023-05-19T00:12:09.134Z,61.79
2023-05-19T00:13:09.124Z,61.79
2023-05-19T00:14:09.101Z,61.79
2023-05-19T00:15:09.088Z,61.89
2023-05-19T00:16:09.150Z,61.89
2023-05-19T00:17:09.069Z,61.89
2023-05-19T00:18:09.151Z,61.89
2023-05-19T00:19:09.046Z,61.89
2023-05-19T00:20:09.031Z,61.89
2023-05-19T00:21:09.056Z,61.79
2023-05-19T00:22:09.006Z,61.79
2023-05-19T00:23:09.010Z,61.89
2023-05-19T00:24:08.974Z,61.99
2023-05-19T00:25:08.964Z,61.99
2023-05-19T00:26:08.995Z,61.99
2023-05-19T00:27:08.930Z,61.99
2023-05-19T00:28:08.960Z,61.99
2023-05-19T00:29:08.907Z,61.99
2023-05-19T00:30:08.903Z,61.99
2023-05-19T00:31:08.877Z,62.09
2023-05-19T00:32:09.036Z,62.09
2023-05-19T00:33:08.911Z,62.09
2023-05-19T00:34:08.849Z,62.09
2023-05-19T00:35:08.829Z,62.09
2023-05-19T00:36:08.832Z,62.09
2023-05-19T00:37:08.814Z,61.99
2023-05-19T00:38:08.798Z,61.99
2023-05-19T00:39:08.802Z,61.99
2023-05-19T00:40:08.776Z,62.09
2023-05-19T00:41:08.749Z,62.09
2023-05-19T00:42:08.745Z,62.09
2023-05-19T00:43:08.724Z,62.09
2023-05-19T00:44:08.710Z,61.99
2023-05-19T00:45:08.700Z,61.99
2023-05-19T00:46:08.705Z,62.09
2023-05-19T00:47:08.810Z,62.09
2023-05-19T00:48:08.699Z,62.20
2023-05-19T00:49:08.648Z,62.20
2023-05-19T00:50:08.634Z,62.09
2023-05-19T00:51:08.620Z,62.20
2023-05-19T00:52:08.609Z,62.20
2023-05-19T00:53:08.593Z,62.09
2023-05-19T00:54:08.579Z,62.09
2023-05-19T00:55:08.597Z,62.09
2023-05-19T00:56:08.560Z,62.09
2023-05-19T00:57:08.541Z,62.23
2023-05-19T00:58:08.527Z,62.20
2023-05-19T00:59:08.514Z,62.20
2023-05-19T01:00:08.506Z,62.32
2023-05-19T01:01:08.559Z,62.23
2023-05-19T01:02:08.473Z,62.23
2023-05-19T01:03:08.571Z,62.23
2023-05-19T01:04:08.601Z,62.23
2023-05-19T01:05:08.432Z,62.12
2023-05-19T01:06:08.486Z,62.23
2023-05-19T01:07:08.405Z,62.23
2023-05-19T01:08:08.395Z,62.32
2023-05-19T01:09:08.381Z,62.32
2023-05-19T01:10:08.377Z,62.32
2023-05-19T01:11:08.463Z,62.32
2023-05-19T01:12:08.342Z,62.32
2023-05-19T01:13:08.331Z,62.32
2023-05-19T01:14:08.321Z,62.32
2023-05-19T01:15:08.303Z,62.32
2023-05-19T01:16:08.334Z,62.32
2023-05-19T01:17:08.281Z,62.32
2023-05-19T01:18:08.343Z,62.32
2023-05-19T01:19:08.328Z,62.32
2023-05-19T01:20:08.254Z,62.32
2023-05-19T01:21:08.232Z,62.32
2023-05-19T01:22:08.214Z,62.43
2023-05-19T01:23:08.199Z,62.43
2023-05-19T01:24:08.190Z,62.43
2023-05-19T01:25:08.173Z,62.43
2023-05-19T01:26:08.158Z,62.43
2023-05-19T01:27:08.183Z,62.43
2023-05-19T01:28:08.141Z,62.53
2023-05-19T01:29:08.120Z,62.43
2023-05-19T01:30:08.107Z,62.53
2023-05-19T01:31:08.095Z,62.53
2023-05-19T01:32:08.234Z,62.53
2023-05-19T01:33:08.150Z,62.43
2023-05-19T01:34:08.055Z,62.43
2023-05-19T01:35:08.047Z,62.43
2023-05-19T01:36:08.028Z,62.43
2023-05-19T01:37:08.045Z,62.53
2023-05-19T01:38:08.008Z,62.53
2023-05-19T01:39:07.997Z,62.43
2023-05-19T01:40:07.977Z,62.53
2023-05-19T01:41:07.960Z,62.53
2023-05-19T01:42:07.950Z,62.53
2023-05-19T01:43:07.973Z,62.53
2023-05-19T01:44:07.938Z,62.53
2023-05-19T01:45:07.910Z,62.53
2023-05-19T01:46:08.010Z,62.53
2023-05-19T01:47:07.886Z,62.53
2023-05-19T01:48:10.611Z,62.53
2023-05-19T01:49:07.889Z,62.53
2023-05-19T01:50:07.850Z,62.53
2023-05-19T01:51:07.833Z,62.53
2023-05-19T01:52:07.822Z,62.53
2023-05-19T01:53:07.822Z,62.53
2023-05-19T01:54:07.794Z,62.63
2023-05-19T01:55:07.779Z,62.53
2023-05-19T01:56:07.771Z,62.53
2023-05-19T01:57:07.753Z,62.63
2023-05-19T01:58:07.743Z,62.63
2023-05-19T01:59:07.756Z,62.63
2023-05-19T02:00:07.743Z,62.63
2023-05-19T02:01:07.734Z,62.63
2023-05-19T02:02:07.691Z,62.63
2023-05-19T02:03:07.780Z,62.63
2023-05-19T02:04:07.751Z,62.63
2023-05-19T02:05:07.652Z,62.63
2023-05-19T02:06:07.663Z,62.63
2023-05-19T02:07:07.633Z,62.63
2023-05-19T02:08:07.615Z,62.63
2023-05-19T02:09:07.609Z,62.63
2023-05-19T02:10:07.599Z,62.63
2023-05-19T02:11:07.572Z,62.63
2023-05-19T02:12:07.561Z,62.73
2023-05-19T02:13:07.556Z,62.63
2023-05-19T02:14:07.534Z,62.73
2023-05-19T02:15:07.553Z,62.73
2023-05-19T02:16:07.627Z,62.73
2023-05-19T02:17:07.498Z,62.73
2023-05-19T02:18:07.478Z,62.73
2023-05-19T02:19:07.545Z,62.73
2023-05-19T02:20:07.450Z,62.73
2023-05-19T02:21:07.437Z,62.73
2023-05-19T02:22:07.422Z,62.63
2023-05-19T02:23:07.407Z,62.63
2023-05-19T02:24:07.425Z,62.73
2023-05-19T02:25:07.387Z,62.73
2023-05-19T02:26:07.372Z,62.73
2023-05-19T02:27:07.354Z,62.73
2023-05-19T02:28:07.358Z,62.73
2023-05-19T02:29:07.335Z,62.73
2023-05-19T02:30:07.357Z,62.73
2023-05-19T02:31:07.326Z,62.73
2023-05-19T02:32:07.369Z,62.73
2023-05-19T02:33:07.323Z,62.73
2023-05-19T02:34:07.266Z,62.73
2023-05-19T02:35:07.250Z,62.73
2023-05-19T02:36:07.237Z,62.73
2023-05-19T02:37:07.238Z,62.73
2023-05-19T02:38:07.213Z,62.73
2023-05-19T02:39:07.200Z,62.73
2023-05-19T02:40:07.190Z,62.73
2023-05-19T02:41:07.174Z,62.73
2023-05-19T02:42:07.157Z,62.84
2023-05-19T02:43:07.146Z,62.73
2023-05-19T02:44:07.130Z,62.84
2023-05-19T02:45:07.119Z,62.73
2023-05-19T02:46:07.124Z,62.73
2023-05-19T02:47:07.130Z,62.73
2023-05-19T02:48:07.110Z,62.73
2023-05-19T02:49:07.067Z,62.63
2023-05-19T02:50:07.053Z,62.63
2023-05-19T02:51:07.034Z,62.63
2023-05-19T02:52:07.031Z,62.63
2023-05-19T02:53:07.023Z,62.73
2023-05-19T02:54:07.002Z,62.73
2023-05-19T02:55:06.980Z,62.63
2023-05-19T02:56:06.973Z,62.84
2023-05-19T02:57:06.953Z,62.84
2023-05-19T02:58:06.944Z,62.84
2023-05-19T02:59:06.933Z,62.63
2023-05-19T03:00:06.927Z,62.73
2023-05-19T03:01:06.907Z,62.84
2023-05-19T03:02:07.020Z,62.84
2023-05-19T03:03:07.067Z,62.84
2023-05-19T03:04:06.947Z,62.84
2023-05-19T03:05:06.849Z,62.93
2023-05-19T03:06:06.839Z,62.84
2023-05-19T03:07:06.828Z,62.84
2023-05-19T03:08:06.811Z,62.93
2023-05-19T03:09:06.811Z,62.93
2023-05-19T03:10:06.820Z,62.93
2023-05-19T03:11:06.772Z,62.84
2023-05-19T03:12:06.755Z,62.73
2023-05-19T03:13:06.743Z,62.73
2023-05-19T03:14:06.728Z,62.84
2023-05-19T03:15:06.711Z,62.84
2023-05-19T03:16:06.796Z,62.84
2023-05-19T03:17:06.698Z,62.93
2023-05-19T03:18:06.713Z,62.93
2023-05-19T03:19:06.713Z,62.84
2023-05-19T03:20:06.658Z,62.93
2023-05-19T03:21:06.635Z,62.84
2023-05-19T03:22:06.624Z,62.84
2023-05-19T03:23:06.618Z,62.93
2023-05-19T03:24:06.633Z,62.93
2023-05-19T03:25:06.588Z,62.93
2023-05-19T03:26:06.573Z,62.93
2023-05-19T03:27:06.565Z,62.93
2023-05-19T03:28:06.540Z,62.93
2023-05-19T03:29:06.529Z,62.93
2023-05-19T03:30:06.903Z,62.84
2023-05-19T03:31:06.503Z,62.93
2023-05-19T03:32:06.504Z,62.93
2023-05-19T03:33:06.529Z,62.93
2023-05-19T03:34:06.468Z,62.93
2023-05-19T03:35:06.473Z,62.93
2023-05-19T03:36:06.438Z,62.93
2023-05-19T03:37:06.424Z,62.93
2023-05-19T03:38:06.413Z,62.93
2023-05-19T03:39:06.401Z,62.93
2023-05-19T03:40:06.384Z,62.93
2023-05-19T03:41:06.368Z,62.93
2023-05-19T03:42:06.361Z,62.93
2023-05-19T03:43:06.344Z,62.93
2023-05-19T03:44:06.332Z,62.96
2023-05-19T03:45:06.318Z,62.93
2023-05-19T03:46:06.343Z,62.93
2023-05-19T03:47:06.296Z,62.93
2023-05-19T03:48:06.293Z,62.96
2023-05-19T03:49:06.271Z,62.93
2023-05-19T03:50:06.255Z,62.96
2023-05-19T03:51:06.284Z,62.93
2023-05-19T03:52:06.224Z,62.96
2023-05-19T03:53:06.211Z,62.96
2023-05-19T03:54:06.204Z,62.93
2023-05-19T03:55:06.185Z,62.93
2023-05-19T03:56:06.174Z,62.96
2023-05-19T03:57:06.177Z,62.84
2023-05-19T03:58:06.163Z,62.87
2023-05-19T03:59:06.131Z,62.87
2023-05-19T04:00:06.126Z,62.76
2023-05-19T04:01:06.105Z,62.76
2023-05-19T04:02:06.410Z,62.76
2023-05-19T04:03:06.171Z,62.76
2023-05-19T04:04:06.094Z,62.76
2023-05-19T04:05:06.052Z,62.84
2023-05-19T04:06:06.038Z,62.73
2023-05-19T04:07:06.147Z,62.66
2023-05-19T04:08:06.011Z,62.76
2023-05-19T04:09:05.996Z,62.66
2023-05-19T04:10:05.982Z,62.66
2023-05-19T04:11:05.972Z,62.66
2023-05-19T04:12:05.955Z,62.76
2023-05-19T04:13:05.944Z,62.63
2023-05-19T04:14:05.937Z,62.63
2023-05-19T04:15:05.929Z,62.63
2023-05-19T04:16:05.937Z,62.63
2023-05-19T04:17:05.897Z,62.63
2023-05-19T04:18:05.904Z,62.84
2023-05-19T04:19:05.952Z,62.63
2023-05-19T04:20:05.855Z,62.63
2023-05-19T04:21:05.852Z,62.63
2023-05-19T04:22:05.827Z,62.66
2023-05-19T04:23:05.838Z,62.66
2023-05-19T04:24:05.800Z,62.63
2023-05-19T04:25:05.796Z,62.63
2023-05-19T04:26:05.771Z,62.63
2023-05-19T04:27:05.756Z,62.53
2023-05-19T04:28:05.747Z,62.53
2023-05-19T04:29:05.731Z,62.63
2023-05-19T04:30:05.730Z,62.63
2023-05-19T04:31:05.732Z,62.63
2023-05-19T04:32:05.692Z,62.63
2023-05-19T04:33:05.731Z,62.63
2023-05-19T04:34:05.665Z,62.53
2023-05-19T04:35:05.656Z,62.63
2023-05-19T04:36:05.639Z,62.53
2023-05-19T04:37:05.626Z,62.53
2023-05-19T04:38:05.624Z,62.53
2023-05-19T04:39:05.790Z,62.53
2023-05-19T04:40:05.596Z,62.53
2023-05-19T04:41:05.576Z,62.53
2023-05-19T04:42:05.559Z,62.53
2023-05-19T04:43:05.547Z,62.43
2023-05-19T04:44:05.529Z,62.53
2023-05-19T04:45:05.521Z,62.43
2023-05-19T04:46:05.519Z,62.23
2023-05-19T04:47:05.558Z,62.23
2023-05-19T04:48:05.520Z,62.12
2023-05-19T04:49:05.468Z,61.99
2023-05-19T04:50:05.452Z,61.89
2023-05-19T04:51:05.448Z,62.02
2023-05-19T04:52:05.430Z,62.02
2023-05-19T04:53:05.414Z,61.99
2023-05-19T04:54:05.408Z,61.89
2023-05-19T04:55:05.482Z,61.68
2023-05-19T04:56:05.380Z,61.59
2023-05-19T04:57:05.359Z,61.38
2023-05-19T04:58:05.346Z,61.38
2023-05-19T04:59:05.347Z,61.38
2023-05-19T05:00:05.323Z,61.38
2023-05-19T05:01:05.310Z,61.25
2023-05-19T05:02:05.364Z,61.15
2023-05-19T05:03:05.509Z,60.94
2023-05-19T05:04:05.415Z,60.94
2023-05-19T05:05:05.263Z,60.84
2023-05-19T05:06:05.240Z,60.84
2023-05-19T05:07:05.228Z,60.94
2023-05-19T05:08:05.216Z,61.05
2023-05-19T05:09:05.202Z,61.15
2023-05-19T05:10:05.185Z,61.15
2023-05-19T05:11:05.202Z,61.15
2023-05-19T05:12:05.162Z,61.05
2023-05-19T05:13:05.147Z,60.94
2023-05-19T05:14:05.141Z,60.94
2023-05-19T05:15:05.127Z,60.94
2023-05-19T05:16:05.175Z,60.84
2023-05-19T05:17:05.090Z,60.84
2023-05-19T05:18:05.139Z,60.74
2023-05-19T05:19:05.162Z,60.64
2023-05-19T05:20:05.051Z,60.64
2023-05-19T05:21:05.038Z,60.64
2023-05-19T05:22:05.058Z,60.74
2023-05-19T05:23:05.070Z,60.74
2023-05-19T05:24:05.001Z,60.74
2023-05-19T05:25:05.079Z,60.84
2023-05-19T05:26:04.974Z,60.84
2023-05-19T05:27:04.994Z,60.84
2023-05-19T05:28:04.988Z,60.74
2023-05-19T05:29:04.966Z,60.64
2023-05-19T05:30:04.917Z,60.54
2023-05-19T05:31:04.921Z,60.41
2023-05-19T05:32:04.920Z,60.41
2023-05-19T05:33:04.999Z,60.41
2023-05-19T05:34:04.873Z,60.41
2023-05-19T05:35:04.855Z,60.41
2023-05-19T05:36:04.840Z,60.30
2023-05-19T05:37:04.837Z,60.30
2023-05-19T05:38:04.823Z,60.30
2023-05-19T05:39:04.803Z,60.30
2023-05-19T05:40:04.839Z,60.30
2023-05-19T05:41:04.777Z,60.30
2023-05-19T05:42:04.762Z,60.30
2023-05-19T05:43:04.777Z,60.21
2023-05-19T05:44:04.739Z,60.21
2023-05-19T05:45:04.727Z,60.10
2023-05-19T05:46:04.789Z,60.10
2023-05-19T05:47:04.701Z,60.00
2023-05-19T05:48:04.712Z,60.00
2023-05-19T05:49:04.678Z,60.00
2023-05-19T05:50:04.657Z,59.90
2023-05-19T05:51:04.648Z,59.90
2023-05-19T05:52:06.538Z,59.90
2023-05-19T05:53:04.620Z,59.90
2023-05-19T05:54:04.607Z,59.90
2023-05-19T05:55:04.594Z,59.90
2023-05-19T05:56:04.578Z,59.90
2023-05-19T05:57:04.571Z,59.80
2023-05-19T05:58:04.559Z,59.80
2023-05-19T05:59:04.584Z,59.67
2023-05-19T06:00:04.535Z,59.80
2023-05-19T06:01:04.537Z,59.80
2023-05-19T06:02:04.532Z,59.69
2023-05-19T06:03:04.572Z,59.57
2023-05-19T06:04:04.486Z,59.46
2023-05-19T06:05:04.546Z,59.36
2023-05-19T06:06:04.555Z,59.46
2023-05-19T06:07:04.439Z,59.26
2023-05-19T06:08:04.426Z,59.16
2023-05-19T06:09:04.426Z,59.06
2023-05-19T06:10:04.401Z,59.06
2023-05-19T06:11:04.389Z,59.06
2023-05-19T06:12:04.375Z,59.16
2023-05-19T06:13:04.380Z,59.16
2023-05-19T06:14:04.346Z,58.95
2023-05-19T06:15:04.380Z,59.16
2023-05-19T06:16:04.401Z,59.06
2023-05-19T06:17:04.320Z,59.26
2023-05-19T06:18:04.331Z,59.06
2023-05-19T06:19:04.334Z,59.16
2023-05-19T06:20:04.264Z,59.16
2023-05-19T06:21:04.260Z,59.16
2023-05-19T06:22:04.241Z,59.16
2023-05-19T06:23:04.230Z,59.16
2023-05-19T06:24:04.215Z,59.16
2023-05-19T06:25:04.223Z,59.26
2023-05-19T06:26:04.197Z,59.16
2023-05-19T06:27:04.177Z,59.16
2023-05-19T06:28:04.163Z,59.16
2023-05-19T06:29:04.163Z,59.16
2023-05-19T06:30:04.138Z,59.06
2023-05-19T06:31:04.182Z,59.16
2023-05-19T06:32:04.127Z,59.06
2023-05-19T06:33:04.136Z,59.06
2023-05-19T06:34:04.089Z,58.95
2023-05-19T06:35:04.088Z,58.75
2023-05-19T06:36:04.070Z,59.06
2023-05-19T06:37:04.056Z,58.95
2023-05-19T06:38:04.037Z,59.06
2023-05-19T06:39:04.030Z,59.26
2023-05-19T06:40:04.017Z,59.06
2023-05-19T06:41:03.996Z,59.16
2023-05-19T06:42:03.984Z,59.16
2023-05-19T06:43:03.969Z,59.16
2023-05-19T06:44:03.959Z,59.06
2023-05-19T06:45:03.943Z,59.06
2023-05-19T06:46:03.937Z,58.95
2023-05-19T06:47:04.057Z,59.06
2023-05-19T06:48:03.961Z,59.26
2023-05-19T06:49:03.906Z,59.26
2023-05-19T06:50:03.889Z,59.36
2023-05-19T06:51:03.876Z,59.26
2023-05-19T06:52:03.856Z,59.36
2023-05-19T06:53:03.846Z,59.39
2023-05-19T06:54:03.830Z,59.29
2023-05-19T06:55:03.821Z,59.39
2023-05-19T06:56:03.802Z,59.29
2023-05-19T06:57:03.786Z,59.26
2023-05-19T06:58:03.773Z,59.39
2023-05-19T06:59:03.763Z,59.39
2023-05-19T07:00:03.748Z,59.39
2023-05-19T07:01:03.740Z,59.29
2023-05-19T07:02:03.791Z,59.29
2023-05-19T07:03:03.820Z,59.36
2023-05-19T07:04:03.779Z,59.39
2023-05-19T07:05:03.691Z,59.29
2023-05-19T07:06:04.565Z,59.06
2023-05-19T07:07:03.664Z,58.95
2023-05-19T07:08:03.646Z,59.06
2023-05-19T07:09:03.631Z,59.16
2023-05-19T07:10:03.650Z,59.16
2023-05-19T07:11:03.631Z,59.29
2023-05-19T07:12:03.607Z,59.16
2023-05-19T07:13:03.592Z,59.16
2023-05-19T07:14:03.574Z,59.16
2023-05-19T07:15:03.574Z,59.26
2023-05-19T07:16:03.557Z,59.26
2023-05-19T07:17:03.527Z,59.29
2023-05-19T07:18:03.607Z,59.16
2023-05-19T07:19:03.552Z,59.06
2023-05-19T07:20:03.487Z,59.16
2023-05-19T07:21:03.483Z,59.16
2023-05-19T07:22:03.466Z,59.06
2023-05-19T07:23:03.470Z,59.06
2023-05-19T07:24:03.449Z,59.06
2023-05-19T07:25:03.438Z,59.16
2023-05-19T07:26:03.406Z,59.19
2023-05-19T07:27:03.400Z,59.19
2023-05-19T07:28:03.382Z,59.29
2023-05-19T07:29:03.369Z,59.29
2023-05-19T07:30:03.355Z,59.29
2023-05-19T07:31:03.348Z,59.19
2023-05-19T07:32:03.458Z,59.19
2023-05-19T07:33:03.358Z,59.19
2023-05-19T07:34:03.338Z,59.19
2023-05-19T07:35:03.331Z,59.19
2023-05-19T07:36:03.292Z,59.29
2023-05-19T07:37:03.265Z,59.39
2023-05-19T07:38:03.251Z,59.39
2023-05-19T07:39:03.353Z,59.08
2023-05-19T07:40:03.242Z,59.29
2023-05-19T07:41:03.209Z,59.29
2023-05-19T07:42:03.195Z,59.08
2023-05-19T07:43:03.181Z,59.49
2023-05-19T07:44:03.174Z,59.49
2023-05-19T07:45:03.158Z,59.19
2023-05-19T07:46:03.193Z,58.99
2023-05-19T07:47:03.137Z,59.29
2023-05-19T07:48:03.151Z,59.08
2023-05-19T07:49:03.106Z,59.49
2023-05-19T07:50:03.123Z,59.49
2023-05-19T07:51:03.187Z,59.08
2023-05-19T07:52:03.069Z,58.88
2023-05-19T07:53:03.053Z,58.88
2023-05-19T07:54:03.045Z,59.19
2023-05-19T07:55:03.029Z,59.29
2023-05-19T07:56:03.009Z,59.29
2023-05-19T07:57:03.005Z,59.39
2023-05-19T07:58:02.988Z,59.39
2023-05-19T07:59:02.977Z,59.39
2023-05-19T08:00:02.961Z,59.39
2023-05-19T08:01:02.965Z,59.60
2023-05-19T08:02:03.002Z,59.60
2023-05-19T08:03:03.049Z,59.49
2023-05-19T08:04:02.969Z,59.60
2023-05-19T08:05:02.916Z,59.49
2023-05-19T08:06:02.881Z,59.69
2023-05-19T08:07:02.979Z,59.69
2023-05-19T08:08:02.859Z,59.69
2023-05-19T08:09:02.845Z,60.00
2023-05-19T08:10:02.830Z,60.10
2023-05-19T08:11:02.818Z,60.10
2023-05-19T08:12:02.803Z,60.10
2023-05-19T08:13:02.799Z,60.10
2023-05-19T08:14:02.790Z,60.00
2023-05-19T08:15:02.767Z,60.00
2023-05-19T08:16:02.903Z,59.90
2023-05-19T08:17:02.744Z,59.90
2023-05-19T08:18:02.787Z,59.80
2023-05-19T08:19:02.872Z,59.69
2023-05-19T08:20:02.710Z,59.69
2023-05-19T08:21:02.707Z,59.60
2023-05-19T08:22:02.674Z,59.39
2023-05-19T08:23:02.716Z,59.60
2023-05-19T08:24:02.691Z,59.69
2023-05-19T08:25:02.640Z,59.60
2023-05-19T08:26:02.631Z,59.60
2023-05-19T08:27:02.618Z,59.60
2023-05-19T08:28:02.602Z,59.60
2023-05-19T08:29:02.600Z,59.49
2023-05-19T08:30:02.586Z,59.60
2023-05-19T08:31:02.615Z,59.39
2023-05-19T08:32:02.547Z,59.60
2023-05-19T08:33:02.592Z,59.49
2023-05-19T08:34:02.520Z,59.39
2023-05-19T08:35:02.531Z,59.39
2023-05-19T08:36:02.505Z,59.49
2023-05-19T08:37:02.485Z,59.29
2023-05-19T08:38:02.472Z,59.49
2023-05-19T08:39:02.648Z,59.60
2023-05-19T08:40:02.456Z,59.49
2023-05-19T08:41:02.445Z,59.39
2023-05-19T08:42:02.537Z,59.39
2023-05-19T08:43:02.408Z,59.39
2023-05-19T08:44:02.404Z,59.36
2023-05-19T08:45:02.399Z,59.39
2023-05-19T08:46:02.366Z,59.08
2023-05-19T08:47:02.434Z,59.06
2023-05-19T08:48:02.407Z,59.06
2023-05-19T08:49:02.326Z,58.95
2023-05-19T08:50:02.312Z,58.99
2023-05-19T08:51:02.299Z,58.85
2023-05-19T08:52:02.285Z,58.95
2023-05-19T08:53:02.276Z,59.06
2023-05-19T08:54:02.267Z,59.16
2023-05-19T08:55:02.336Z,58.85
2023-05-19T08:56:02.233Z,58.95
2023-05-19T08:57:02.223Z,58.85
2023-05-19T08:58:02.212Z,58.85
2023-05-19T08:59:02.188Z,58.75
2023-05-19T09:00:02.182Z,58.85
2023-05-19T09:01:02.184Z,58.75
2023-05-19T09:02:02.151Z,58.65
2023-05-19T09:04:02.261Z,58.45
2023-05-19T09:05:02.158Z,58.45
2023-05-19T09:06:02.182Z,58.55
2023-05-19T09:07:02.100Z,58.25
2023-05-19T09:08:02.077Z,58.45
2023-05-19T09:09:02.068Z,58.34
2023-05-19T09:10:02.058Z,58.25
2023-05-19T09:11:02.065Z,57.94
2023-05-19T09:12:02.021Z,58.04
2023-05-19T09:13:02.008Z,58.04
2023-05-19T09:14:01.994Z,58.04
2023-05-19T09:15:01.983Z,58.04
2023-05-19T09:16:01.989Z,58.14
2023-05-19T09:17:01.988Z,58.34
2023-05-19T09:18:01.971Z,58.14
2023-05-19T09:19:01.971Z,58.14
2023-05-19T09:20:01.920Z,58.04
2023-05-19T09:21:01.908Z,58.25
2023-05-19T09:22:01.892Z,58.34
2023-05-19T09:23:01.881Z,57.94
2023-05-19T09:24:01.865Z,57.53
2023-05-19T09:25:01.874Z,57.33
2023-05-19T09:26:01.837Z,57.12
2023-05-19T09:27:01.847Z,57.00
2023-05-19T09:28:01.823Z,57.51
2023-05-19T09:29:01.797Z,57.53
2023-05-19T09:30:01.788Z,57.43
2023-05-19T09:31:01.775Z,57.53
2023-05-19T09:32:01.784Z,57.43
2023-05-19T09:33:01.790Z,57.03
2023-05-19T09:34:01.763Z,57.03
2023-05-19T09:35:01.755Z,57.03
2023-05-19T09:36:01.718Z,57.23
2023-05-19T09:37:01.698Z,57.53
2023-05-19T09:38:01.682Z,57.53
2023-05-19T09:39:01.669Z,57.43
2023-05-19T09:40:01.652Z,57.43
2023-05-19T09:41:01.643Z,57.20
2023-05-19T09:42:01.626Z,57.40
2023-05-19T09:43:01.678Z,57.51
2023-05-19T09:44:01.598Z,57.73
2023-05-19T09:45:01.582Z,57.51
2023-05-19T09:46:01.757Z,57.71
2023-05-19T09:47:01.551Z,57.51
2023-05-19T09:48:01.590Z,57.71
2023-05-19T09:49:01.530Z,57.71
2023-05-19T09:50:01.570Z,57.94
2023-05-19T09:51:01.498Z,58.04
2023-05-19T09:52:01.498Z,57.73
2023-05-19T09:53:01.483Z,57.73
2023-05-19T09:54:01.465Z,57.64
2023-05-19T09:55:01.448Z,57.64
2023-05-19T09:56:01.432Z,57.94
2023-05-19T09:57:01.430Z,58.04
2023-05-19T09:58:01.406Z,58.04
2023-05-19T09:59:01.410Z,58.14
2023-05-19T10:00:01.384Z,58.25
2023-05-19T10:01:01.391Z,58.45
2023-05-19T10:02:01.404Z,58.45
2023-05-19T10:03:01.351Z,58.55
2023-05-19T10:04:02.207Z,58.14
2023-05-19T10:05:01.338Z,58.14
2023-05-19T10:06:01.314Z,57.91
2023-05-19T10:07:01.283Z,57.71
2023-05-19T10:08:01.278Z,57.91
2023-05-19T10:09:01.255Z,57.91
2023-05-19T10:10:01.248Z,58.02
2023-05-19T10:11:01.307Z,57.71
2023-05-19T10:12:01.217Z,57.81
2023-05-19T10:13:01.204Z,57.71
2023-05-19T10:14:01.190Z,57.81
2023-05-19T10:15:01.214Z,57.30
2023-05-19T10:16:01.622Z,56.69
2023-05-19T10:17:01.217Z,57.61
2023-05-19T10:18:01.195Z,57.91
2023-05-19T10:19:01.209Z,58.04
2023-05-19T10:20:01.107Z,57.81
2023-05-19T10:21:01.095Z,58.11
2023-05-19T10:22:01.095Z,58.02
2023-05-19T10:23:01.077Z,58.02
2023-05-19T10:24:01.061Z,57.91
2023-05-19T10:25:01.044Z,57.81
2023-05-19T10:26:01.033Z,58.11
2023-05-19T10:27:01.090Z,57.30
2023-05-19T10:28:01.006Z,56.90
2023-05-19T10:29:00.994Z,57.20
2023-05-19T10:30:00.980Z,57.10
2023-05-19T10:31:01.062Z,56.69
2023-05-19T10:32:00.979Z,56.69
2023-05-19T10:33:01.012Z,56.79
2023-05-19T10:34:00.942Z,56.79
2023-05-19T10:35:00.931Z,56.69
2023-05-19T10:36:00.902Z,56.79
2023-05-19T10:37:00.886Z,56.56
2023-05-19T10:38:00.871Z,56.77
2023-05-19T10:39:00.855Z,56.56
2023-05-19T10:40:00.844Z,56.97
2023-05-19T10:41:00.838Z,56.87
2023-05-19T10:42:00.817Z,57.00
2023-05-19T10:43:00.807Z,56.39
2023-05-19T10:44:00.791Z,55.95
2023-05-19T10:45:00.797Z,56.06
2023-05-19T10:46:00.774Z,56.46
2023-05-19T10:47:00.815Z,56.36
2023-05-19T10:48:00.821Z,56.46
2023-05-19T10:49:00.750Z,56.06
2023-05-19T10:50:00.718Z,56.46
2023-05-19T10:51:00.704Z,56.46
2023-05-19T10:52:00.695Z,56.26
2023-05-19T10:53:00.676Z,56.36
2023-05-19T10:54:00.665Z,56.06
2023-05-19T10:55:00.651Z,55.95
2023-05-19T10:56:00.655Z,56.36
2023-05-19T10:57:00.621Z,56.16
2023-05-19T10:58:00.629Z,56.56
2023-05-19T10:59:00.599Z,56.67
2023-05-19T11:00:00.599Z,56.97
2023-05-19T11:01:00.574Z,56.77
2023-05-19T11:02:00.627Z,57.00
2023-05-19T11:03:00.620Z,56.79
2023-05-19T11:04:00.616Z,56.90
2023-05-19T11:05:00.528Z,56.79
2023-05-19T11:06:00.508Z,56.56
2023-05-19T11:07:00.497Z,57.08
2023-05-19T11:08:00.487Z,56.67
2023-05-19T11:09:00.482Z,56.46
2023-05-19T11:10:00.460Z,56.46
2023-05-19T11:11:00.446Z,56.56
2023-05-19T11:12:00.432Z,56.87
2023-05-19T11:13:00.423Z,56.77
2023-05-19T11:14:00.408Z,56.46
2023-05-19T11:15:00.393Z,56.77
2023-05-19T11:16:00.377Z,56.77
2023-05-19T11:17:00.442Z,56.06
2023-05-19T11:18:00.377Z,56.46
2023-05-19T11:19:00.527Z,56.16
2023-05-19T11:20:00.341Z,56.77
2023-05-19T11:21:00.390Z,56.67
2023-05-19T11:22:00.301Z,56.26
2023-05-19T11:23:00.308Z,56.36
2023-05-19T11:24:00.321Z,56.06
2023-05-19T11:25:00.259Z,56.06
2023-05-19T11:26:00.252Z,56.13
2023-05-19T11:27:00.232Z,56.36
2023-05-19T11:28:00.219Z,56.06
2023-05-19T11:29:00.222Z,56.06
2023-05-19T11:30:00.241Z,56.26
2023-05-19T11:31:00.187Z,56.36
2023-05-19T11:32:00.271Z,56.16
2023-05-19T11:33:00.189Z,56.06
2023-05-19T11:34:00.188Z,56.26
2023-05-19T11:35:00.258Z,56.36
2023-05-19T11:36:00.208Z,56.43
2023-05-19T11:37:00.167Z,56.43
2023-05-19T11:38:00.155Z,56.34
2023-05-19T11:39:00.085Z,56.43
2023-05-19T11:40:00.066Z,56.34
2023-05-19T11:41:00.059Z,56.23
2023-05-19T11:42:00.043Z,56.23
2023-05-19T11:43:00.020Z,55.83
2023-05-19T11:44:00.011Z,56.13
2023-05-19T11:45:00.044Z,56.13
2023-05-19T11:46:00.035Z,56.13
2023-05-19T11:46:59.988Z,56.03
2023-05-19T11:48:02.148Z,56.13
2023-05-19T11:48:59.945Z,56.23
2023-05-19T11:49:59.941Z,56.34
2023-05-19T11:50:59.947Z,56.34
2023-05-19T11:51:59.908Z,56.23
2023-05-19T11:52:59.893Z,55.62
2023-05-19T11:53:59.880Z,55.93
2023-05-19T11:54:59.862Z,56.13
2023-05-19T11:55:59.849Z,56.23
2023-05-19T11:56:59.835Z,56.43
2023-05-19T11:58:03.911Z,56.43
2023-05-19T11:58:59.810Z,56.36
2023-05-19T11:59:59.799Z,56.23
2023-05-19T12:00:59.785Z,56.03
2023-05-19T12:01:59.770Z,55.93
2023-05-19T12:02:59.801Z,56.13
2023-05-19T12:03:59.851Z,56.03
2023-05-19T12:04:59.787Z,56.34
2023-05-19T12:05:59.741Z,56.43
2023-05-19T12:06:59.731Z,56.34
2023-05-19T12:07:59.693Z,56.34
2023-05-19T12:08:59.683Z,55.93
2023-05-19T12:09:59.684Z,56.13
2023-05-19T12:10:59.652Z,56.23
2023-05-19T12:11:59.642Z,55.73
2023-05-19T12:12:59.628Z,55.93
2023-05-19T12:13:59.614Z,55.73
2023-05-19T12:14:59.598Z,55.83
2023-05-19T12:15:59.634Z,55.83
2023-05-19T12:16:59.571Z,55.42
2023-05-19T12:17:59.609Z,55.62
2023-05-19T12:18:59.661Z,55.83
2023-05-19T12:19:59.529Z,55.83
2023-05-19T12:20:59.518Z,55.73
2023-05-19T12:21:59.516Z,55.52
2023-05-19T12:22:59.543Z,55.83
2023-05-19T12:23:59.484Z,55.73
2023-05-19T12:24:59.468Z,55.73
2023-05-19T12:25:59.471Z,55.83
2023-05-19T12:26:59.441Z,55.73
2023-05-19T12:27:59.441Z,56.03
2023-05-19T12:28:59.425Z,55.62
2023-05-19T12:29:59.408Z,55.93
2023-05-19T12:30:59.397Z,55.73
2023-05-19T12:31:59.392Z,55.83
2023-05-19T12:32:59.478Z,55.52
2023-05-19T12:33:59.349Z,55.73
2023-05-19T12:34:59.335Z,55.83
2023-05-19T12:35:59.325Z,55.93
2023-05-19T12:36:59.310Z,55.73
2023-05-19T12:37:59.297Z,55.62
2023-05-19T12:38:59.346Z,55.62
2023-05-19T12:39:59.310Z,55.83
2023-05-19T12:40:59.254Z,55.83
2023-05-19T12:41:59.244Z,55.73
2023-05-19T12:42:59.450Z,55.93
2023-05-19T12:43:59.214Z,55.73
2023-05-19T12:45:00.632Z,55.52
2023-05-19T12:45:59.228Z,55.60
2023-05-19T12:46:59.174Z,55.49
2023-05-19T12:47:59.207Z,55.60
2023-05-19T12:48:59.147Z,55.40
2023-05-19T12:49:59.142Z,55.40
2023-05-19T12:50:59.121Z,55.70
2023-05-19T12:52:00.440Z,55.70
2023-05-19T12:52:59.099Z,55.60